createdAt,value
2022-08-27T00:02:00.927Z,64.52
2022-08-27T00:04:04.316Z,65.24
2022-08-27T00:06:08.765Z,65.04
2022-08-27T00:08:13.779Z,65.96
2022-08-27T00:10:22.011Z,65.62
2022-08-27T00:12:23.997Z,65.37
2022-08-27T00:14:27.918Z,65.50
2022-08-27T00:16:36.006Z,65.24
2022-08-27T00:18:40.436Z,66.24
2022-08-27T00:20:44.559Z,65.81
2022-08-27T00:22:46.653Z,65.92
2022-08-27T00:24:49.690Z,66.97
2022-08-27T00:26:54.078Z,66.48
2022-08-27T00:28:56.027Z,66.86
2022-08-27T00:30:58.346Z,67.06
2022-08-27T00:33:00.290Z,67.53
2022-08-27T00:35:02.470Z,66.95
2022-08-27T00:37:06.949Z,67.47
2022-08-27T00:39:12.193Z,67.63
2022-08-27T00:41:20.552Z,67.67
2022-08-27T00:43:29.753Z,68.13
2022-08-27T00:45:37.254Z,68.61
2022-08-27T00:47:45.941Z,68.81
2022-08-27T00:49:53.165Z,68.98
2022-08-27T00:52:06.343Z,69.21
2022-08-27T00:54:09.803Z,69.28
2022-08-27T00:56:19.979Z,69.89
2022-08-27T00:58:36.555Z,69.53
2022-08-27T01:00:39.038Z,70.05
2022-08-27T01:02:42.364Z,70.38
2022-08-27T01:04:47.512Z,70.50
2022-08-27T01:06:49.548Z,70.46
2022-08-27T01:09:09.264Z,70.77
2022-08-27T01:11:11.856Z,70.99
2022-08-27T01:13:17.478Z,71.04
2022-08-27T01:15:21.946Z,71.02
2022-08-27T01:17:25.437Z,71.03
2022-08-27T01:19:33.165Z,71.12
2022-08-27T01:22:00.944Z,71.35
2022-08-27T01:24:27.222Z,71.99
2022-08-27T01:26:31.175Z,72.76
2022-08-27T01:28:37.827Z,72.49
2022-08-27T01:30:40.861Z,74.62
2022-08-27T01:32:43.615Z,76.03
2022-08-27T01:34:48.475Z,75.79
2022-08-27T01:36:50.410Z,75.16
2022-08-27T01:38:59.777Z,76.02
2022-08-27T01:41:02.945Z,78.05
2022-08-27T01:43:07.495Z,79.34
2022-08-27T01:45:25.331Z,80.54
2022-08-27T01:47:31.037Z,81.90
2022-08-27T01:49:34.681Z,82.91
2022-08-27T01:51:37.393Z,84.22
2022-08-27T01:53:40.374Z,85.03
2022-08-27T01:55:47.541Z,84.79
2022-08-27T01:57:50.348Z,85.53
2022-08-27T01:59:52.499Z,85.71
2022-08-27T02:01:55.947Z,85.72
2022-08-27T02:03:58.182Z,86.08
2022-08-27T02:06:06.238Z,86.28
2022-08-27T02:08:09.322Z,87.32
2022-08-27T02:10:15.430Z,87.68
2022-08-27T02:12:17.449Z,87.59
2022-08-27T02:14:20.254Z,87.71
2022-08-27T02:16:23.258Z,88.75
2022-08-27T02:18:25.317Z,88.89
2022-08-27T02:20:29.475Z,88.97
2022-08-27T02:22:32.165Z,89.06
2022-08-27T02:24:35.150Z,88.87
2022-08-27T02:26:38.248Z,89.40
2022-08-27T02:28:40.334Z,89.86
2022-08-27T02:30:43.333Z,90.32
2022-08-27T02:32:47.522Z,91.43
2022-08-27T02:34:49.754Z,92.32
2022-08-27T02:36:54.120Z,92.58
2022-08-27T02:38:56.571Z,92.91
2022-08-27T02:41:00.577Z,92.65
2022-08-27T02:43:03.969Z,92.69
2022-08-27T02:45:08.505Z,92.96
2022-08-27T02:47:12.601Z,92.86
2022-08-27T02:49:15.677Z,92.97
2022-08-27T02:51:18.647Z,92.28
2022-08-27T02:53:24.221Z,92.46
2022-08-27T02:55:27.543Z,92.31
2022-08-27T02:57:36.969Z,92.38
2022-08-27T02:59:39.068Z,93.10
2022-08-27T03:01:41.078Z,93.39
2022-08-27T03:03:43.945Z,93.53
2022-08-27T03:05:45.925Z,93.77
2022-08-27T03:07:49.875Z,93.85
2022-08-27T03:09:53.065Z,93.69
2022-08-27T03:11:55.433Z,93.88
2022-08-27T03:13:59.544Z,94.41
2022-08-27T03:16:02.116Z,94.45
2022-08-27T03:18:19.283Z,94.15
2022-08-27T03:20:23.029Z,94.51
2022-08-27T03:22:26.322Z,94.42
2022-08-27T03:24:28.453Z,94.75
2022-08-27T03:26:32.252Z,95.02
2022-08-27T03:28:36.434Z,95.26
2022-08-27T03:30:38.421Z,95.11
2022-08-27T03:32:40.437Z,95.46
2022-08-27T03:34:42.672Z,94.99
2022-08-27T03:36:44.849Z,95.41
2022-08-27T03:38:50.226Z,95.31
2022-08-27T03:40:53.567Z,95.15
2022-08-27T03:42:55.812Z,95.56
2022-08-27T03:44:58.084Z,95.70
2022-08-27T03:47:00.875Z,95.08
2022-08-27T03:49:02.845Z,95.52
2022-08-27T03:51:09.896Z,95.69
2022-08-27T03:53:14.478Z,95.48
2022-08-27T03:55:16.524Z,95.59
2022-08-27T03:57:18.550Z,95.73
2022-08-27T03:59:21.792Z,95.71
2022-08-27T04:01:25.448Z,96.39
2022-08-27T04:03:28.639Z,96.26
2022-08-27T04:05:37.590Z,95.98
2022-08-27T04:07:42.221Z,96.08
2022-08-27T04:09:46.160Z,96.56
2022-08-27T04:11:48.203Z,96.86
2022-08-27T04:13:50.213Z,96.91
2022-08-27T04:15:54.917Z,96.76
2022-08-27T04:17:56.989Z,96.56
2022-08-27T04:20:18.847Z,96.46
2022-08-27T04:22:24.064Z,96.44
2022-08-27T04:24:26.119Z,96.91
2022-08-27T04:26:29.072Z,97.49
2022-08-27T04:28:34.133Z,98.04
2022-08-27T04:30:44.596Z,98.09
2022-08-27T04:32:46.611Z,98.40
2022-08-27T04:34:49.089Z,98.29
2022-08-27T04:36:51.205Z,97.30
2022-08-27T04:38:53.228Z,95.87
2022-08-27T04:41:15.916Z,94.74
2022-08-27T04:43:18.868Z,92.79
2022-08-27T04:45:20.829Z,91.26
2022-08-27T04:47:22.865Z,89.49
2022-08-27T04:49:25.445Z,89.62
2022-08-27T04:51:29.515Z,90.27
2022-08-27T04:53:34.626Z,88.33
2022-08-27T04:55:57.922Z,88.76
2022-08-27T04:58:00.004Z,88.00
2022-08-27T05:00:02.020Z,86.32
2022-08-27T05:02:09.533Z,85.79
2022-08-27T05:04:15.186Z,83.92
2022-08-27T05:06:20.372Z,82.88
2022-08-27T05:08:22.437Z,81.21
2022-08-27T05:10:24.454Z,79.88
2022-08-27T05:12:26.405Z,79.22
2022-08-27T05:14:30.685Z,79.00
2022-08-27T05:16:35.426Z,78.01
2022-08-27T05:18:46.387Z,77.79
2022-08-27T05:20:50.514Z,75.23
2022-08-27T05:22:52.471Z,74.98
2022-08-27T05:24:54.558Z,74.50
2022-08-27T05:26:56.586Z,73.29
2022-08-27T05:29:05.488Z,73.24
2022-08-27T05:31:11.042Z,71.83
2022-08-27T05:33:18.539Z,71.74
2022-08-27T05:35:21.451Z,70.51
2022-08-27T05:37:23.504Z,70.57
2022-08-27T05:39:25.450Z,70.17
2022-08-27T05:41:33.984Z,70.46
2022-08-27T05:43:38.814Z,71.18
2022-08-27T05:45:43.033Z,68.62
2022-08-27T05:47:45.085Z,68.04
2022-08-27T05:49:47.254Z,67.91
2022-08-27T05:51:50.705Z,67.63
2022-08-27T05:53:55.797Z,67.70
2022-08-27T05:55:57.805Z,67.66
2022-08-27T05:58:00.839Z,67.44
2022-08-27T06:00:41.968Z,67.33
2022-08-27T06:02:45.687Z,67.02
2022-08-27T06:04:47.898Z,67.02
2022-08-27T06:06:50.531Z,67.49
2022-08-27T06:08:53.936Z,66.63
2022-08-27T06:10:56.935Z,66.01
2022-08-27T06:13:04.998Z,64.81
2022-08-27T06:15:07.527Z,65.00
2022-08-27T06:17:09.598Z,65.12
2022-08-27T06:19:13.660Z,64.09
2022-08-27T06:21:21.427Z,64.07
2022-08-27T06:23:27.890Z,62.13
2022-08-27T06:25:32.760Z,59.53
2022-08-27T06:27:34.830Z,59.21
2022-08-27T06:29:38.078Z,59.62
2022-08-27T06:31:40.755Z,59.16
2022-08-27T06:33:44.580Z,55.40
2022-08-27T06:35:46.584Z,53.28
2022-08-27T06:37:48.540Z,52.27
2022-08-27T06:39:51.924Z,50.38
2022-08-27T06:41:54.051Z,53.71
2022-08-27T06:43:58.090Z,54.05
2022-08-27T06:46:03.939Z,51.78
2022-08-27T06:48:08.062Z,53.10
2022-08-27T06:50:24.263Z,50.80
2022-08-27T06:52:29.832Z,48.47
2022-08-27T06:54:32.522Z,49.18
2022-08-27T06:56:34.906Z,50.30
2022-08-27T06:58:38.183Z,51.33
2022-08-27T07:00:48.817Z,50.21
2022-08-27T07:02:51.468Z,48.91
2022-08-27T07:04:54.901Z,49.90
2022-08-27T07:06:58.506Z,50.34
2022-08-27T07:09:01.688Z,48.09
2022-08-27T07:11:03.701Z,49.47
2022-08-27T07:13:06.142Z,49.19
2022-08-27T07:15:08.821Z,50.32
2022-08-27T07:17:15.943Z,50.62
2022-08-27T07:19:18.918Z,50.41
2022-08-27T07:21:24.029Z,49.84
2022-08-27T07:23:26.240Z,51.17
2022-08-27T07:25:28.150Z,49.46
2022-08-27T07:27:30.193Z,49.52
2022-08-27T07:29:34.640Z,48.64
2022-08-27T07:31:37.269Z,47.80
2022-08-27T07:33:42.102Z,48.02
2022-08-27T07:35:52.280Z,49.34
2022-08-27T07:37:54.312Z,44.41
2022-08-27T07:39:56.409Z,45.00
2022-08-27T07:42:17.745Z,45.64
2022-08-27T07:44:34.169Z,45.47
2022-08-27T07:46:39.715Z,45.18
2022-08-27T07:48:44.170Z,45.26
2022-08-27T07:50:46.183Z,45.21
2022-08-27T07:52:51.570Z,43.92
2022-08-27T07:54:53.638Z,40.64
2022-08-27T07:56:56.240Z,42.43
2022-08-27T07:59:00.266Z,42.23
2022-08-27T08:01:08.927Z,40.35
2022-08-27T08:03:12.257Z,40.12
2022-08-27T08:05:16.846Z,39.90
2022-08-27T08:07:19.054Z,39.86
2022-08-27T08:09:27.782Z,41.08
2022-08-27T08:11:29.803Z,40.80
2022-08-27T08:13:38.225Z,39.67
2022-08-27T08:15:40.675Z,40.88
2022-08-27T08:17:42.648Z,42.68
2022-08-27T08:20:02.476Z,40.89
2022-08-27T08:22:09.243Z,39.68
2022-08-27T08:24:12.203Z,40.76
2022-08-27T08:26:15.770Z,38.11
2022-08-27T08:28:17.807Z,37.45
2022-08-27T08:30:19.803Z,37.21
2022-08-27T08:32:21.863Z,37.44
2022-08-27T08:34:23.928Z,37.38
2022-08-27T08:36:25.909Z,38.23
2022-08-27T08:38:28.995Z,39.79
2022-08-27T08:40:36.371Z,38.25
2022-08-27T08:42:51.930Z,38.48
2022-08-27T08:44:58.166Z,38.50
2022-08-27T08:47:03.649Z,40.27
2022-08-27T08:49:35.192Z,38.88
2022-08-27T08:51:43.795Z,41.11
2022-08-27T08:53:58.599Z,38.40
2022-08-27T08:56:03.561Z,36.85
2022-08-27T08:58:46.197Z,39.61
2022-08-27T09:01:04.961Z,39.50
2022-08-27T09:03:16.565Z,39.40
2022-08-27T09:05:18.830Z,38.81
2022-08-27T09:07:45.127Z,36.14
2022-08-27T09:10:01.255Z,35.68
2022-08-27T09:12:15.116Z,37.55
2022-08-27T09:14:35.528Z,39.84
2022-08-27T09:16:46.144Z,38.37
2022-08-27T09:18:52.754Z,37.02
2022-08-27T09:21:09.033Z,41.82
2022-08-27T09:23:35.403Z,40.53
2022-08-27T09:25:45.056Z,37.82
2022-08-27T09:27:58.486Z,36.99
2022-08-27T09:30:09.623Z,36.97
2022-08-27T09:32:12.903Z,38.54
2022-08-27T09:34:16.153Z,38.86
2022-08-27T09:36:22.975Z,34.00
2022-08-27T09:38:35.349Z,33.82
2022-08-27T09:40:51.330Z,33.65
2022-08-27T09:43:20.881Z,33.35
2022-08-27T09:45:30.470Z,33.45
2022-08-27T09:47:42.844Z,33.64
2022-08-27T09:49:49.368Z,33.65
2022-08-27T09:51:55.465Z,33.21
2022-08-27T09:54:02.574Z,32.91
2022-08-27T09:56:26.216Z,32.12
2022-08-27T09:58:54.059Z,33.87
2022-08-27T10:01:07.367Z,33.68
2022-08-27T10:03:11.286Z,31.85
2022-08-27T10:05:25.369Z,33.95
2022-08-27T10:07:55.683Z,34.88
2022-08-27T10:10:38.052Z,35.10
2022-08-27T10:13:10.462Z,35.60
2022-08-27T10:15:15.209Z,33.33
2022-08-27T10:17:33.259Z,33.51
2022-08-27T10:19:53.519Z,35.06
2022-08-27T10:22:08.764Z,35.20
2022-08-27T10:24:25.962Z,35.04
2022-08-27T10:26:38.165Z,33.52
2022-08-27T10:29:09.087Z,32.83
2022-08-27T10:31:33.047Z,33.35
2022-08-27T10:33:57.358Z,34.74
2022-08-27T10:36:49.068Z,34.83
2022-08-27T10:39:03.258Z,34.49
2022-08-27T10:41:34.571Z,34.07
2022-08-27T10:43:56.597Z,34.59
2022-08-27T10:45:58.606Z,34.59
2022-08-27T10:48:11.272Z,35.35
2022-08-27T10:51:08.573Z,35.44
2022-08-27T10:53:27.417Z,32.53
2022-08-27T10:55:43.335Z,33.73
2022-08-27T10:58:18.426Z,34.04
2022-08-27T11:00:23.522Z,34.55
2022-08-27T11:02:36.414Z,32.48
2022-08-27T11:04:47.579Z,32.52
2022-08-27T11:06:58.215Z,32.97
2022-08-27T11:09:42.826Z,34.70
2022-08-27T11:12:15.419Z,33.05
2022-08-27T11:14:31.059Z,32.06
2022-08-27T11:16:53.005Z,31.15
2022-08-27T11:19:15.237Z,31.86
2022-08-27T11:21:25.371Z,31.66
2022-08-27T11:23:43.869Z,32.37
2022-08-27T11:25:55.919Z,31.81
2022-08-27T11:28:04.746Z,30.46
2022-08-27T11:30:19.641Z,31.15
2022-08-27T11:32:37.013Z,31.83
2022-08-27T11:34:57.341Z,32.33
2022-08-27T11:37:38.717Z,33.01
2022-08-27T11:40:05.848Z,29.75
2022-08-27T11:42:23.033Z,31.87
2022-08-27T11:44:27.134Z,29.88
2022-08-27T11:46:44.447Z,31.56
2022-08-27T11:48:57.519Z,30.26
2022-08-27T11:51:03.066Z,29.83
2022-08-27T11:53:08.881Z,29.76
2022-08-27T11:55:14.735Z,29.49
2022-08-27T11:57:28.874Z,27.09
2022-08-27T11:59:34.004Z,27.84
2022-08-27T12:01:35.968Z,29.93
2022-08-27T12:03:38.302Z,29.07
2022-08-27T12:05:48.019Z,28.03
2022-08-27T12:07:53.643Z,28.37
2022-08-27T12:10:20.322Z,26.75
2022-08-27T12:12:47.969Z,27.28
2022-08-27T12:15:17.917Z,28.13
2022-08-27T12:17:46.719Z,27.94
2022-08-27T12:20:13.629Z,27.46
2022-08-27T12:22:27.615Z,27.54
2022-08-27T12:24:39.362Z,28.75
2022-08-27T12:26:54.040Z,27.35
2022-08-27T12:29:17.177Z,29.10
2022-08-27T12:31:23.713Z,30.85
2022-08-27T12:33:33.503Z,28.85
2022-08-27T12:35:43.345Z,31.35
2022-08-27T12:38:07.782Z,28.46
2022-08-27T12:40:38.344Z,28.67
2022-08-27T12:42:40.673Z,28.61
2022-08-27T12:44:42.610Z,27.23
2022-08-27T12:47:04.357Z,26.33
2022-08-27T12:49:36.986Z,26.95
2022-08-27T12:51:36.468Z,27.50
2022-08-27T12:53:53.582Z,27.54
2022-08-27T12:56:27.141Z,28.33
2022-08-27T12:59:02.634Z,28.94
2022-08-27T13:01:25.977Z,29.77
2022-08-27T13:03:48.635Z,30.04
2022-08-27T13:05:57.002Z,30.14
2022-08-27T13:08:00.013Z,29.35
2022-08-27T13:10:15.476Z,28.66
2022-08-27T13:12:19.964Z,30.24
2022-08-27T13:14:23.252Z,29.59
2022-08-27T13:16:25.507Z,29.08
2022-08-27T13:18:29.464Z,27.40
2022-08-27T13:20:35.430Z,28.34
2022-08-27T13:22:39.986Z,27.49
2022-08-27T13:24:49.252Z,28.60
2022-08-27T13:26:53.927Z,27.33
2022-08-27T13:29:02.605Z,29.05
2022-08-27T13:31:07.442Z,26.29
2022-08-27T13:33:20.343Z,28.67
2022-08-27T13:35:24.727Z,29.68
2022-08-27T13:37:37.931Z,28.53
2022-08-27T13:39:39.905Z,28.46
2022-08-27T13:41:43.082Z,29.31
2022-08-27T13:43:49.264Z,30.83
2022-08-27T13:46:00.545Z,31.56
2022-08-27T13:48:06.680Z,28.51
2022-08-27T13:50:23.166Z,26.81
2022-08-27T13:52:32.150Z,26.78
2022-08-27T13:54:35.195Z,28.71
2022-08-27T13:56:41.033Z,27.45
2022-08-27T13:58:44.292Z,27.54
2022-08-27T14:00:53.649Z,27.14
2022-08-27T14:03:01.166Z,27.29
2022-08-27T14:05:47.976Z,27.80
2022-08-27T14:08:02.537Z,28.59
2022-08-27T14:10:25.561Z,27.29
2022-08-27T14:12:41.816Z,27.37
2022-08-27T14:14:44.971Z,27.69
2022-08-27T14:17:01.452Z,27.86
2022-08-27T14:19:12.869Z,29.04
2022-08-27T14:21:14.835Z,27.63
2022-08-27T14:23:19.002Z,27.52
2022-08-27T14:25:22.724Z,27.62
2022-08-27T14:27:27.100Z,28.06
2022-08-27T14:29:30.173Z,27.81
2022-08-27T14:31:32.226Z,27.10
2022-08-27T14:33:34.410Z,28.87
2022-08-27T14:35:36.943Z,28.79
2022-08-27T14:37:42.267Z,27.44
2022-08-27T14:39:45.128Z,26.75
2022-08-27T14:41:48.590Z,26.57
2022-08-27T14:43:52.995Z,27.36
2022-08-27T14:45:57.378Z,26.68
2022-08-27T14:48:02.298Z,28.03
2022-08-27T14:50:09.826Z,26.68
2022-08-27T14:52:15.230Z,26.27
2022-08-27T14:54:17.284Z,27.70
2022-08-27T14:56:21.556Z,27.54
2022-08-27T14:58:23.510Z,26.16
2022-08-27T15:00:25.983Z,25.79
2022-08-27T15:02:28.755Z,26.24
2022-08-27T15:04:33.168Z,25.55
2022-08-27T15:06:36.227Z,27.03
2022-08-27T15:08:38.290Z,27.29
2022-08-27T15:10:43.050Z,26.79
2022-08-27T15:12:45.243Z,27.04
2022-08-27T15:14:49.368Z,29.10
2022-08-27T15:16:53.146Z,31.87
2022-08-27T15:18:59.279Z,29.31
2022-08-27T15:21:03.674Z,28.49
2022-08-27T15:23:05.700Z,26.73
2022-08-27T15:25:09.883Z,27.11
2022-08-27T15:27:12.166Z,28.15
2022-08-27T15:29:14.237Z,28.03
2022-08-27T15:31:16.362Z,27.95
2022-08-27T15:33:21.218Z,28.94
2022-08-27T15:35:28.655Z,27.82
2022-08-27T15:37:32.563Z,28.71
2022-08-27T15:39:40.286Z,27.29
2022-08-27T15:42:05.234Z,27.11
2022-08-27T15:44:05.940Z,27.76
2022-08-27T15:46:08.079Z,27.79
2022-08-27T15:48:11.307Z,27.50
2022-08-27T15:50:13.582Z,27.81
2022-08-27T15:52:20.739Z,31.04
2022-08-27T15:54:24.303Z,31.04
2022-08-27T15:56:32.540Z,31.42
2022-08-27T15:58:38.167Z,29.76
2022-08-27T16:00:42.396Z,28.84
2022-08-27T16:02:44.990Z,30.19
2022-08-27T16:04:49.089Z,30.40
2022-08-27T16:06:51.249Z,29.54
2022-08-27T16:08:53.833Z,30.13
2022-08-27T16:10:57.259Z,30.28
2022-08-27T16:13:00.206Z,31.03
2022-08-27T16:15:02.756Z,31.59
2022-08-27T16:17:04.888Z,31.51
2022-08-27T16:19:14.777Z,30.60
2022-08-27T16:21:18.602Z,29.46
2022-08-27T16:23:20.708Z,29.90
2022-08-27T16:25:23.807Z,30.84
2022-08-27T16:27:25.643Z,31.53
2022-08-27T16:29:27.629Z,30.94
2022-08-27T16:31:30.244Z,31.23
2022-08-27T16:33:34.621Z,31.02
2022-08-27T16:35:42.765Z,31.59
2022-08-27T16:37:44.727Z,32.97
2022-08-27T16:39:46.771Z,33.44
2022-08-27T16:41:50.568Z,34.47
2022-08-27T16:43:53.797Z,34.76
2022-08-27T16:45:57.499Z,34.83
2022-08-27T16:48:17.935Z,36.06
2022-08-27T16:50:35.953Z,36.26
2022-08-27T16:52:37.959Z,35.20
2022-08-27T16:54:39.855Z,35.90
2022-08-27T16:56:41.897Z,38.65
2022-08-27T16:58:51.138Z,37.70
2022-08-27T17:00:56.674Z,40.25
2022-08-27T17:02:58.791Z,39.78
2022-08-27T17:05:23.783Z,43.50
2022-08-27T17:07:25.904Z,47.79
2022-08-27T17:09:28.059Z,47.23
2022-08-27T17:11:32.369Z,48.94
2022-08-27T17:13:34.704Z,49.47
2022-08-27T17:15:36.829Z,50.99
2022-08-27T17:17:39.097Z,51.06
2022-08-27T17:19:41.243Z,52.28
2022-08-27T17:21:45.121Z,53.12
2022-08-27T17:23:52.084Z,53.38
2022-08-27T17:25:54.030Z,52.17
2022-08-27T17:27:59.956Z,54.21
2022-08-27T17:30:04.353Z,56.52
2022-08-27T17:32:10.113Z,58.59
2022-08-27T17:34:22.180Z,56.86
2022-08-27T17:36:24.640Z,57.17
2022-08-27T17:38:32.961Z,57.38
2022-08-27T17:40:34.979Z,59.38
2022-08-27T17:42:37.637Z,55.40
2022-08-27T17:44:39.629Z,48.54
2022-08-27T17:47:01.809Z,55.97
2022-08-27T17:49:04.154Z,58.96
2022-08-27T17:51:13.193Z,60.29
2022-08-27T17:53:17.042Z,59.40
2022-08-27T17:55:20.045Z,59.71
2022-08-27T17:57:25.811Z,58.28
2022-08-27T17:59:36.444Z,60.29
2022-08-27T18:01:40.767Z,60.09
2022-08-27T18:03:53.495Z,58.88
2022-08-27T18:08:17.075Z,61.03
2022-08-27T18:10:26.216Z,61.74
2022-08-27T18:12:36.526Z,62.17
2022-08-27T18:14:56.467Z,63.18
2022-08-27T18:17:09.801Z,63.90
2022-08-27T18:19:15.970Z,64.22
2022-08-27T18:21:28.991Z,65.61
2022-08-27T18:23:39.686Z,63.67
2022-08-27T18:25:48.312Z,64.48
2022-08-27T18:28:02.120Z,58.86
2022-08-27T18:30:22.304Z,58.57
2022-08-27T18:32:27.625Z,56.59
2022-08-27T18:34:33.799Z,53.76
2022-08-27T18:36:43.636Z,53.31
2022-08-27T18:38:56.107Z,50.67
2022-08-27T18:41:00.955Z,50.23
2022-08-27T18:43:05.934Z,49.19
2022-08-27T18:45:23.955Z,48.89
2022-08-27T18:47:39.401Z,48.83
2022-08-27T18:49:41.516Z,49.25
2022-08-27T18:52:03.015Z,48.72
2022-08-27T18:54:05.543Z,48.94
2022-08-27T18:56:25.281Z,49.11
2022-08-27T18:58:41.225Z,49.17
2022-08-27T19:00:59.455Z,48.63
2022-08-27T19:03:34.952Z,48.94
2022-08-27T19:05:38.183Z,48.04
2022-08-27T19:07:49.218Z,48.00
2022-08-27T19:09:55.936Z,48.24
2022-08-27T19:12:07.874Z,48.40
2022-08-27T19:14:16.782Z,48.16
2022-08-27T19:17:07.042Z,48.35
2022-08-27T19:19:14.152Z,48.49
2022-08-27T19:21:48.006Z,48.06
2022-08-27T19:23:54.238Z,48.15
2022-08-27T19:26:01.660Z,48.51
2022-08-27T19:28:05.731Z,48.28
2022-08-27T19:30:16.926Z,48.39
2022-08-27T19:32:19.596Z,48.73
2022-08-27T19:34:25.457Z,48.61
2022-08-27T19:36:28.181Z,48.17
2022-08-27T19:38:34.490Z,48.77
2022-08-27T19:40:38.776Z,48.57
2022-08-27T19:42:42.214Z,48.98
2022-08-27T19:44:45.545Z,49.21
2022-08-27T19:46:51.792Z,49.50
2022-08-27T19:48:56.406Z,49.85
2022-08-27T19:51:03.402Z,49.48
2022-08-27T19:53:05.678Z,50.03
2022-08-27T19:55:13.934Z,49.98
2022-08-27T19:57:16.900Z,50.08
2022-08-27T19:59:36.389Z,50.58
2022-08-27T20:01:50.522Z,50.36
2022-08-27T20:03:56.845Z,51.08
2022-08-27T20:06:05.128Z,51.41
2022-08-27T20:08:08.622Z,51.66
2022-08-27T20:10:10.787Z,51.97
2022-08-27T20:12:18.741Z,52.58
2022-08-27T20:14:21.856Z,51.71
2022-08-27T20:16:37.420Z,51.78
2022-08-27T20:18:50.455Z,51.94
2022-08-27T20:20:53.530Z,51.34
2022-08-27T20:22:59.366Z,51.32
2022-08-27T20:25:02.586Z,51.72
2022-08-27T20:27:04.900Z,52.21
2022-08-27T20:29:15.047Z,52.17
2022-08-27T20:31:45.437Z,52.00
2022-08-27T20:33:52.791Z,52.09
2022-08-27T20:36:04.353Z,52.21
2022-08-27T20:38:13.533Z,52.28
2022-08-27T20:40:25.463Z,52.03
2022-08-27T20:42:38.479Z,52.38
2022-08-27T20:45:15.588Z,52.22
2022-08-27T20:47:19.016Z,52.28
2022-08-27T20:51:51.377Z,52.21
2022-08-27T20:54:18.855Z,52.31
2022-08-27T20:56:28.025Z,52.90
2022-08-27T20:58:58.923Z,52.71
2022-08-27T21:01:02.175Z,53.05
2022-08-27T21:03:16.373Z,52.49
2022-08-27T21:05:19.661Z,53.02
2022-08-27T21:07:22.369Z,53.00
2022-08-27T21:09:28.380Z,53.00
2022-08-27T21:11:30.339Z,52.90
2022-08-27T21:13:56.186Z,52.75
2022-08-27T21:16:04.190Z,53.00
2022-08-27T21:18:07.538Z,52.63
2022-08-27T21:20:50.452Z,53.00
2022-08-27T21:22:52.504Z,53.31
2022-08-27T21:25:13.450Z,53.77
2022-08-27T21:27:16.922Z,54.08
2022-08-27T21:29:23.990Z,53.89
2022-08-27T21:31:40.284Z,53.70
2022-08-27T21:33:44.371Z,53.86
2022-08-27T21:35:47.425Z,53.97
2022-08-27T21:38:07.486Z,54.11
2022-08-27T21:40:11.428Z,54.14
2022-08-27T21:42:20.400Z,54.33
2022-08-27T21:44:44.841Z,54.38
2022-08-27T21:46:49.747Z,54.35
2022-08-27T21:49:00.767Z,54.96
2022-08-27T21:51:13.787Z,55.08
2022-08-27T21:53:45.562Z,55.23
2022-08-27T21:55:54.399Z,55.55
2022-08-27T21:58:13.194Z,55.87
2022-08-27T22:00:28.564Z,56.15
2022-08-27T22:02:40.330Z,56.28
2022-08-27T22:04:47.395Z,56.32
2022-08-27T22:06:58.773Z,56.33
2022-08-27T22:09:07.790Z,56.30
2022-08-27T22:11:30.688Z,56.69
2022-08-27T22:13:33.803Z,57.05
2022-08-27T22:15:36.549Z,57.47
2022-08-27T22:17:41.750Z,57.51
2022-08-27T22:19:46.687Z,57.69
2022-08-27T22:21:50.859Z,57.83
2022-08-27T22:24:08.036Z,58.07
2022-08-27T22:26:17.645Z,58.70
2022-08-27T22:28:19.710Z,59.21
2022-08-27T22:30:23.116Z,60.30
2022-08-27T22:32:25.096Z,59.69
2022-08-27T22:34:27.005Z,59.76
2022-08-27T22:36:29.527Z,60.46
2022-08-27T22:38:31.692Z,60.58
2022-08-27T22:40:44.656Z,60.88
2022-08-27T22:42:54.092Z,61.60
2022-08-27T22:45:00.008Z,61.99
2022-08-27T22:47:05.075Z,62.31
2022-08-27T22:49:08.383Z,62.92
2022-08-27T22:51:12.640Z,63.82
2022-08-27T22:53:23.891Z,62.16
2022-08-27T22:55:31.997Z,62.12
2022-08-27T22:57:42.240Z,62.06
2022-08-27T22:59:52.142Z,63.35
2022-08-27T23:02:00.948Z,63.83
2022-08-27T23:04:06.511Z,64.57
2022-08-27T23:06:15.481Z,64.28
2022-08-27T23:08:18.542Z,64.10
2022-08-27T23:10:27.792Z,63.52
2022-08-27T23:12:30.782Z,64.56
2022-08-27T23:14:34.919Z,65.37
2022-08-27T23:16:39.953Z,65.16
2022-08-27T23:18:46.799Z,65.08
2022-08-27T23:20:49.770Z,65.17
2022-08-27T23:22:52.940Z,65.58
2022-08-27T23:25:14.701Z,66.17
2022-08-27T23:27:36.729Z,64.89
2022-08-27T23:29:38.852Z,64.05
2022-08-27T23:31:41.883Z,64.20
2022-08-27T23:33:52.685Z,63.82
2022-08-27T23:35:57.661Z,64.01
2022-08-27T23:37:59.628Z,63.76
2022-08-27T23:40:01.611Z,64.12
2022-08-27T23:42:03.659Z,64.21
2022-08-27T23:44:17.492Z,64.06
2022-08-27T23:46:19.487Z,64.39
2022-08-27T23:48:22.457Z,63.99
2022-08-27T23:50:34.032Z,64.18
2022-08-27T23:52:37.343Z,64.68
2022-08-27T23:54:45.542Z,64.27
2022-08-27T23:56:48.212Z,64.60
2022-08-27T23:58:52.117Z,64.59
